createdAt,value
2015-07-29T00:00:08.846Z,15.8
2015-07-29T00:00:27.361Z,15.9
2015-07-29T00:00:45.658Z,16
2015-07-29T00:01:04.033Z,16
2015-07-29T00:01:22.566Z,16.1
2015-07-29T00:01:40.941Z,16.2
2015-07-29T00:01:59.395Z,16.1
2015-07-29T00:02:17.818Z,16.1
2015-07-29T00:02:36.272Z,16
2015-07-29T00:02:54.693Z,16
2015-07-29T00:03:13.195Z,16
2015-07-29T00:03:31.008Z,16
2015-07-29T00:03:49.399Z,16.1
2015-07-29T00:04:08.008Z,16.2
2015-07-29T00:04:26.432Z,16.1
2015-07-29T00:04:44.916Z,16.1
2015-07-29T00:05:03.416Z,16.1
2015-07-29T00:05:21.809Z,16
2015-07-29T00:05:40.199Z,16
2015-07-29T00:05:58.606Z,16.1
2015-07-29T00:06:16.998Z,16.1
2015-07-29T00:06:35.373Z,16.1
2015-07-29T00:06:53.608Z,16.1
2015-07-29T00:07:11.998Z,16.1
2015-07-29T00:07:30.391Z,16.1
2015-07-29T00:07:48.782Z,16.1
2015-07-29T00:08:07.172Z,16.1
2015-07-29T00:08:25.564Z,16
2015-07-29T00:08:43.939Z,16
2015-07-29T00:09:02.298Z,15.9
2015-07-29T00:09:20.691Z,16
2015-07-29T00:09:39.206Z,16
2015-07-29T00:09:57.581Z,16
2015-07-29T00:10:15.972Z,16
2015-07-29T00:10:34.366Z,15.9
2015-07-29T00:10:52.741Z,16
2015-07-29T00:11:11.147Z,16
2015-07-29T00:11:29.507Z,16
2015-07-29T00:11:47.882Z,16.1
2015-07-29T00:12:06.273Z,16.1
2015-07-29T00:12:24.634Z,16.2
2015-07-29T00:12:43.009Z,16.1
2015-07-29T00:13:00.744Z,16.1
2015-07-29T00:13:19.119Z,16.1
2015-07-29T00:13:37.497Z,16.1
2015-07-29T00:13:55.903Z,16.1
2015-07-29T00:14:14.325Z,16.2
2015-07-29T00:14:32.686Z,16.2
2015-07-29T00:14:51.077Z,16.2
2015-07-29T00:15:09.436Z,16.2
2015-07-29T00:15:27.844Z,16.3
2015-07-29T00:15:46.219Z,16.3
2015-07-29T00:16:04.594Z,16.2
2015-07-29T00:16:23.017Z,16.1
2015-07-29T00:16:41.345Z,16.2
2015-07-29T00:16:59.814Z,16.2
2015-07-29T00:17:18.236Z,16.2
2015-07-29T00:17:36.613Z,16.2
2015-07-29T00:17:54.988Z,16.2
2015-07-29T00:18:13.363Z,16.2
2015-07-29T00:18:31.740Z,16.3
2015-07-29T00:18:50.131Z,16.4
2015-07-29T00:19:08.521Z,16.4
2015-07-29T00:19:26.898Z,16.4
2015-07-29T00:19:45.273Z,16.3
2015-07-29T00:20:03.648Z,16.2
2015-07-29T00:20:21.883Z,16.1
2015-07-29T00:20:40.260Z,16.2
2015-07-29T00:20:58.650Z,16.1
2015-07-29T00:21:17.041Z,16.1
2015-07-29T00:21:35.418Z,16.2
2015-07-29T00:21:53.793Z,16.2
2015-07-29T00:22:12.184Z,16.3
2015-07-29T00:22:30.561Z,16.3
2015-07-29T00:22:48.951Z,16.3
2015-07-29T00:23:07.311Z,16.3
2015-07-29T00:23:25.701Z,16.3
2015-07-29T00:23:44.078Z,16.3
2015-07-29T00:24:02.469Z,16.3
2015-07-29T00:24:20.828Z,16.2
2015-07-29T00:24:39.221Z,16.2
2015-07-29T00:24:57.596Z,16.3
2015-07-29T00:25:15.971Z,16.3
2015-07-29T00:25:34.348Z,16.2
2015-07-29T00:25:52.738Z,16.3
2015-07-29T00:26:11.129Z,16.3
2015-07-29T00:26:29.504Z,16.2
2015-07-29T00:26:47.897Z,16.2
2015-07-29T00:27:06.272Z,16.2
2015-07-29T00:27:24.678Z,16.2
2015-07-29T00:27:43.039Z,16.2
2015-07-29T00:28:01.414Z,16.2
2015-07-29T00:28:19.789Z,16.1
2015-07-29T00:28:38.166Z,16.1
2015-07-29T00:28:56.541Z,16.2
2015-07-29T00:29:17.916Z,16.2
2015-07-29T00:29:36.308Z,16.2
2015-07-29T00:29:54.699Z,16.2
2015-07-29T00:30:13.058Z,16.2
2015-07-29T00:30:31.433Z,16.2
2015-07-29T00:30:49.154Z,16.2
2015-07-29T00:31:07.529Z,16.2
2015-07-29T00:31:25.919Z,16.3
2015-07-29T00:31:44.313Z,16.3
2015-07-29T00:32:02.672Z,16.3
2015-07-29T00:32:21.063Z,16.3
2015-07-29T00:32:39.471Z,16.3
2015-07-29T00:32:57.846Z,16.4
2015-07-29T00:33:16.221Z,16.4
2015-07-29T00:33:34.596Z,16.4
2015-07-29T00:33:52.973Z,16.4
2015-07-29T00:34:11.348Z,16.4
2015-07-29T00:34:29.708Z,16.3
2015-07-29T00:34:48.085Z,16.4
2015-07-29T00:35:06.475Z,16.3
2015-07-29T00:35:24.850Z,16.2
2015-07-29T00:35:42.571Z,16.3
2015-07-29T00:36:00.962Z,16.3
2015-07-29T00:36:19.352Z,16.2
2015-07-29T00:36:37.727Z,16.2
2015-07-29T00:36:56.112Z,16.3
2015-07-29T00:37:14.472Z,16.2
2015-07-29T00:37:32.862Z,16.2
2015-07-29T00:37:51.276Z,16.3
2015-07-29T00:38:09.651Z,16.3
2015-07-29T00:38:28.042Z,16.3
2015-07-29T00:38:46.456Z,16.3
2015-07-29T00:39:04.831Z,16.3
2015-07-29T00:39:23.221Z,16.3
2015-07-29T00:39:41.612Z,16.3
2015-07-29T00:39:59.871Z,16.3
2015-07-29T00:40:18.261Z,16.3
2015-07-29T00:40:36.636Z,16.3
2015-07-29T00:40:55.066Z,16.3
2015-07-29T00:41:13.425Z,16.3
2015-07-29T00:41:31.816Z,16.4
2015-07-29T00:41:50.220Z,16.4
2015-07-29T00:42:08.595Z,16.4
2015-07-29T00:42:26.970Z,16.4
2015-07-29T00:42:45.361Z,16.5
2015-07-29T00:43:03.767Z,16.5
2015-07-29T00:43:22.002Z,16.4
2015-07-29T00:43:40.408Z,16.4
2015-07-29T00:43:58.814Z,16.4
2015-07-29T00:44:17.220Z,16.5
2015-07-29T00:44:35.595Z,16.4
2015-07-29T00:44:53.985Z,16.4
2015-07-29T00:45:12.219Z,16.3
2015-07-29T00:45:30.610Z,16.3
2015-07-29T00:45:48.985Z,16.3
2015-07-29T00:46:07.406Z,16.3
2015-07-29T00:46:25.797Z,16.2
2015-07-29T00:46:44.156Z,16.2
2015-07-29T00:47:02.559Z,16.3
2015-07-29T00:47:20.934Z,16.3
2015-07-29T00:47:39.324Z,16.3
2015-07-29T00:47:57.706Z,16.3
2015-07-29T00:48:16.081Z,16.4
2015-07-29T00:48:33.816Z,16.4
2015-07-29T00:48:52.206Z,16.5
2015-07-29T00:49:10.604Z,16.4
2015-07-29T00:49:28.995Z,16.4
2015-07-29T00:49:47.385Z,16.4
2015-07-29T00:50:05.797Z,16.3
2015-07-29T00:50:24.188Z,16.4
2015-07-29T00:50:42.579Z,16.3
2015-07-29T00:51:00.961Z,16.3
2015-07-29T00:51:19.336Z,16.3
2015-07-29T00:51:37.726Z,16.3
2015-07-29T00:51:56.101Z,16.4
2015-07-29T00:52:14.481Z,16.4
2015-07-29T00:52:32.872Z,16.4
2015-07-29T00:52:51.247Z,16.4
2015-07-29T00:53:08.984Z,16.3
2015-07-29T00:53:27.359Z,16.4
2015-07-29T00:53:45.750Z,16.4
2015-07-29T00:54:04.141Z,16.4
2015-07-29T00:54:22.520Z,16.4
2015-07-29T00:54:40.895Z,16.3
2015-07-29T00:54:59.285Z,16.3
2015-07-29T00:55:17.679Z,16.2
2015-07-29T00:55:36.038Z,16.2
2015-07-29T00:55:54.413Z,16.2
2015-07-29T00:56:12.792Z,16.2
2015-07-29T00:56:31.198Z,16.2
2015-07-29T00:56:49.573Z,16.2
2015-07-29T00:57:07.964Z,16.3
2015-07-29T00:57:26.341Z,16.4
2015-07-29T00:57:44.732Z,16.3
2015-07-29T00:58:03.122Z,16.3
2015-07-29T00:58:21.501Z,16.4
2015-07-29T00:58:39.892Z,16.4
2015-07-29T00:58:58.267Z,16.3
2015-07-29T00:59:16.003Z,16.3
2015-07-29T00:59:34.378Z,16.3
2015-07-29T00:59:52.769Z,16.3
2015-07-29T01:00:11.163Z,16.2
2015-07-29T01:00:29.553Z,16.3
2015-07-29T01:00:47.928Z,16.3
2015-07-29T01:01:06.303Z,16.2
2015-07-29T01:01:24.696Z,16.3
2015-07-29T01:01:42.415Z,16.2
2015-07-29T01:02:00.790Z,16.2
2015-07-29T01:02:18.527Z,16.2
2015-07-29T01:02:36.902Z,16.2
2015-07-29T01:02:55.293Z,16.2
2015-07-29T01:03:13.669Z,16.2
2015-07-29T01:03:32.059Z,16.3
2015-07-29T01:03:50.450Z,16.3
2015-07-29T01:04:08.825Z,16.3
2015-07-29T01:04:27.218Z,16.3
2015-07-29T01:04:44.953Z,16.3
2015-07-29T01:05:03.328Z,16.3
2015-07-29T01:05:21.688Z,16.4
2015-07-29T01:05:40.079Z,16.4
2015-07-29T01:05:58.438Z,16.4
2015-07-29T01:06:16.831Z,16.4
2015-07-29T01:06:35.221Z,16.4
2015-07-29T01:06:53.612Z,16.3
2015-07-29T01:07:11.987Z,16.3
2015-07-29T01:07:30.411Z,16.3
2015-07-29T01:07:48.927Z,16.3
2015-07-29T01:08:07.317Z,16.3
2015-07-29T01:08:25.694Z,16.2
2015-07-29T01:08:44.069Z,16.2
2015-07-29T01:09:02.585Z,16.2
2015-07-29T01:09:21.041Z,16.2
2015-07-29T01:09:39.432Z,16.3
2015-07-29T01:09:57.853Z,16.3
2015-07-29T01:10:16.416Z,16.2
2015-07-29T01:10:34.979Z,16.2
2015-07-29T01:10:53.386Z,16.2
2015-07-29T01:11:11.901Z,16.2
2015-07-29T01:11:30.419Z,16.2
2015-07-29T01:11:48.856Z,16.2
2015-07-29T01:12:07.435Z,16.2
2015-07-29T01:12:25.813Z,16.2
2015-07-29T01:12:44.219Z,16.1
2015-07-29T01:13:02.641Z,16.2
2015-07-29T01:13:21.031Z,16.2
2015-07-29T01:13:39.439Z,16.2
2015-07-29T01:13:57.970Z,16.3
2015-07-29T01:14:16.407Z,16.3
2015-07-29T01:14:34.862Z,16.4
2015-07-29T01:14:53.253Z,16.4
2015-07-29T01:15:11.722Z,16.3
2015-07-29T01:15:30.302Z,16.3
2015-07-29T01:15:48.677Z,16.3
2015-07-29T01:16:07.083Z,16.4
2015-07-29T01:16:25.536Z,16.3
2015-07-29T01:16:44.132Z,16.3
2015-07-29T01:17:02.538Z,16.3
2015-07-29T01:17:20.913Z,16.3
2015-07-29T01:17:39.275Z,16.4
2015-07-29T01:17:57.775Z,16.3
2015-07-29T01:18:16.322Z,16.3
2015-07-29T01:18:34.699Z,16.4
2015-07-29T01:18:53.058Z,16.4
2015-07-29T01:19:11.620Z,16.4
2015-07-29T01:19:29.995Z,16.3
2015-07-29T01:19:48.232Z,16.3
2015-07-29T01:20:06.669Z,16.3
2015-07-29T01:20:25.154Z,16.2
2015-07-29T01:20:43.640Z,16.2
2015-07-29T01:21:02.015Z,16.2
2015-07-29T01:21:20.531Z,16.1
2015-07-29T01:21:38.908Z,16.1
2015-07-29T01:21:57.314Z,16.2
2015-07-29T01:22:15.876Z,16.2
2015-07-29T01:22:34.361Z,16.2
2015-07-29T01:22:52.738Z,16.2
2015-07-29T01:23:11.128Z,16.2
2015-07-29T01:23:29.957Z,16.2
2015-07-29T01:23:48.630Z,16.2
2015-07-29T01:24:06.990Z,16.3
2015-07-29T01:24:25.724Z,16.3
2015-07-29T01:24:44.242Z,16.4
2015-07-29T01:25:02.695Z,16.4
2015-07-29T01:25:20.664Z,16.3
2015-07-29T01:25:39.226Z,16.4
2015-07-29T01:25:57.634Z,16.3
2015-07-29T01:26:16.072Z,16.4
2015-07-29T01:26:34.494Z,16.4
2015-07-29T01:26:52.918Z,16.4
2015-07-29T01:27:11.699Z,16.4
2015-07-29T01:27:30.136Z,16.4
2015-07-29T01:27:48.512Z,16.5
2015-07-29T01:28:06.966Z,16.4
2015-07-29T01:28:25.341Z,16.5
2015-07-29T01:28:43.747Z,16.5
2015-07-29T01:29:02.156Z,16.5
2015-07-29T01:29:20.703Z,16.5
2015-07-29T01:29:39.406Z,16.5
2015-07-29T01:29:57.173Z,16.6
2015-07-29T01:30:15.735Z,16.5
2015-07-29T01:30:34.220Z,16.4
2015-07-29T01:30:52.613Z,16.3
2015-07-29T01:31:11.129Z,16.3
2015-07-29T01:31:29.629Z,16.2
2015-07-29T01:31:48.129Z,16.2
2015-07-29T01:32:06.692Z,16.2
2015-07-29T01:32:25.177Z,16.1
2015-07-29T01:32:43.567Z,16.2
2015-07-29T01:33:02.163Z,16.2
2015-07-29T01:33:20.522Z,16.2
2015-07-29T01:33:38.929Z,16.1
2015-07-29T01:33:57.322Z,16.2
2015-07-29T01:34:15.760Z,16.2
2015-07-29T01:34:34.135Z,16.2
2015-07-29T01:34:52.856Z,16.2
2015-07-29T01:35:11.231Z,16.2
2015-07-29T01:35:29.621Z,16.1
2015-07-29T01:35:48.074Z,16.2
2015-07-29T01:36:06.747Z,16.2
2015-07-29T01:36:25.232Z,16.2
2015-07-29T01:36:43.200Z,16.2
2015-07-29T01:37:02.030Z,16.3
2015-07-29T01:37:20.546Z,16.3
2015-07-29T01:37:39.030Z,16.3
2015-07-29T01:37:57.642Z,16.3
2015-07-29T01:38:16.032Z,16.3
2015-07-29T01:38:34.423Z,16.2
2015-07-29T01:38:52.798Z,16.2
2015-07-29T01:39:11.175Z,16.2
2015-07-29T01:39:29.816Z,16.1
2015-07-29T01:39:48.253Z,16.1
2015-07-29T01:40:06.661Z,16.1
2015-07-29T01:40:25.068Z,16.2
2015-07-29T01:40:43.552Z,16.3
2015-07-29T01:41:02.132Z,16.3
2015-07-29T01:41:20.679Z,16.3
2015-07-29T01:41:39.054Z,16.4
2015-07-29T01:41:57.413Z,16.4
2015-07-29T01:42:16.087Z,16.4
2015-07-29T01:42:34.619Z,16.4
2015-07-29T01:42:53.181Z,16.4
2015-07-29T01:43:11.574Z,16.4
2015-07-29T01:43:29.949Z,16.5
2015-07-29T01:43:48.355Z,16.6
2015-07-29T01:44:07.076Z,16.6
2015-07-29T01:44:25.779Z,16.6
2015-07-29T01:44:44.263Z,16.5
2015-07-29T01:45:02.763Z,16.5
2015-07-29T01:45:21.187Z,16.5
2015-07-29T01:45:39.546Z,16.5
2015-07-29T01:45:57.593Z,16.5
2015-07-29T01:46:16.298Z,16.5
2015-07-29T01:46:34.673Z,16.5
2015-07-29T01:46:53.080Z,16.5
2015-07-29T01:47:11.504Z,16.4
2015-07-29T01:47:30.019Z,16.4
2015-07-29T01:47:48.504Z,16.5
2015-07-29T01:48:07.004Z,16.4
2015-07-29T01:48:25.381Z,16.4
2015-07-29T01:48:43.099Z,16.4
2015-07-29T01:49:01.506Z,16.3
2015-07-29T01:49:20.133Z,16.4
2015-07-29T01:49:38.617Z,16.3
2015-07-29T01:49:57.039Z,16.2
2015-07-29T01:50:15.697Z,16.2
2015-07-29T01:50:34.150Z,16.1
2015-07-29T01:50:52.697Z,16.2
2015-07-29T01:51:11.447Z,16.3
2015-07-29T01:51:30.027Z,16.3
2015-07-29T01:51:48.621Z,16.3
2015-07-29T01:52:06.980Z,16.3
2015-07-29T01:52:25.420Z,16.3
2015-07-29T01:52:43.826Z,16.2
2015-07-29T01:53:02.498Z,16.2
2015-07-29T01:53:20.969Z,16.2
2015-07-29T01:53:39.422Z,16.2
2015-07-29T01:53:57.812Z,16.3
2015-07-29T01:54:16.469Z,16.3
2015-07-29T01:54:34.893Z,16.3
2015-07-29T01:54:53.533Z,16.3
2015-07-29T01:55:12.002Z,16.3
2015-07-29T01:55:30.394Z,16.3
2015-07-29T01:55:48.753Z,16.3
2015-07-29T01:56:07.487Z,16.4
2015-07-29T01:56:25.975Z,16.4
2015-07-29T01:56:44.631Z,16.4
2015-07-29T01:57:03.162Z,16.4
2015-07-29T01:57:21.647Z,16.4
2015-07-29T01:57:40.024Z,16.4
2015-07-29T01:57:58.539Z,16.4
2015-07-29T01:58:16.930Z,16.3
2015-07-29T01:58:35.306Z,16.3
2015-07-29T01:58:53.915Z,16.3
2015-07-29T01:59:12.353Z,16.4
2015-07-29T01:59:31.262Z,16.3
2015-07-29T01:59:49.949Z,16.2
2015-07-29T02:00:08.356Z,16.2
2015-07-29T02:00:27.090Z,16.3
2015-07-29T02:00:45.513Z,16.3
2015-07-29T02:01:03.935Z,16.3
2015-07-29T02:01:22.388Z,16.4
2015-07-29T02:01:40.890Z,16.4
2015-07-29T02:01:59.374Z,16.4
2015-07-29T02:02:17.890Z,16.4
2015-07-29T02:02:36.440Z,16.3
2015-07-29T02:02:54.940Z,16.3
2015-07-29T02:03:13.518Z,16.3
2015-07-29T02:03:32.175Z,16.2
2015-07-29T02:03:50.550Z,16.2
2015-07-29T02:04:08.925Z,16.3
2015-07-29T02:04:27.472Z,16.3
2015-07-29T02:04:45.958Z,16.4
2015-07-29T02:05:04.396Z,16.3
2015-07-29T02:05:22.943Z,16.3
2015-07-29T02:05:41.367Z,16.2
2015-07-29T02:05:59.804Z,16.3
2015-07-29T02:06:18.320Z,16.3
2015-07-29T02:06:36.806Z,16.3
2015-07-29T02:06:55.259Z,16.3
2015-07-29T02:07:13.947Z,16.3
2015-07-29T02:07:32.447Z,16.3
2015-07-29T02:07:50.949Z,16.3
2015-07-29T02:08:09.668Z,16.4
2015-07-29T02:08:28.121Z,16.4
2015-07-29T02:08:46.654Z,16.4
2015-07-29T02:09:05.029Z,16.3
2015-07-29T02:09:23.404Z,16.3
2015-07-29T02:09:41.781Z,16.3
2015-07-29T02:10:00.312Z,16.3
2015-07-29T02:10:18.703Z,16.3
2015-07-29T02:10:37.125Z,16.3
2015-07-29T02:10:55.767Z,16.3
2015-07-29T02:11:14.174Z,16.2
2015-07-29T02:11:32.627Z,16.2
2015-07-29T02:11:51.207Z,16.2
2015-07-29T02:12:09.847Z,16.3
2015-07-29T02:12:28.254Z,16.3
2015-07-29T02:12:46.662Z,16.4
2015-07-29T02:13:05.287Z,16.4
2015-07-29T02:13:23.724Z,16.4
2015-07-29T02:13:42.334Z,16.3
2015-07-29T02:14:00.867Z,16.2
2015-07-29T02:14:19.523Z,16.2
2015-07-29T02:14:37.914Z,16.2
2015-07-29T02:14:56.431Z,16.3
2015-07-29T02:15:14.915Z,16.3
2015-07-29T02:15:33.321Z,16.3
2015-07-29T02:15:51.699Z,16.3
2015-07-29T02:16:10.309Z,16.4
2015-07-29T02:16:28.793Z,16.4
2015-07-29T02:16:47.264Z,16.5
2015-07-29T02:17:05.623Z,16.5
2015-07-29T02:17:23.998Z,16.5
2015-07-29T02:17:42.670Z,16.4
2015-07-29T02:18:01.030Z,16.4
2015-07-29T02:18:19.468Z,16.4
2015-07-29T02:18:37.874Z,16.4
2015-07-29T02:18:56.408Z,16.4
2015-07-29T02:19:14.815Z,16.3
2015-07-29T02:19:33.205Z,16.3
2015-07-29T02:19:51.800Z,16.4
2015-07-29T02:20:10.331Z,16.3
2015-07-29T02:20:28.941Z,16.3
2015-07-29T02:20:47.347Z,16.3
2015-07-29T02:21:05.819Z,16.4
2015-07-29T02:21:24.459Z,16.4
2015-07-29T02:21:42.850Z,16.4
2015-07-29T02:22:01.586Z,16.4
2015-07-29T02:22:19.977Z,16.4
2015-07-29T02:22:38.446Z,16.4
2015-07-29T02:22:56.822Z,16.4
2015-07-29T02:23:14.540Z,16.4
2015-07-29T02:23:33.009Z,16.4
2015-07-29T02:23:51.572Z,16.4
2015-07-29T02:24:10.028Z,16.4
2015-07-29T02:24:28.434Z,16.5
2015-07-29T02:24:46.903Z,16.4
2015-07-29T02:25:05.107Z,16.4
2015-07-29T02:25:23.482Z,16.4
2015-07-29T02:25:41.904Z,16.2
2015-07-29T02:26:00.421Z,16.2
2015-07-29T02:26:18.874Z,16
2015-07-29T02:26:37.484Z,16
2015-07-29T02:26:56.017Z,16
2015-07-29T02:27:14.626Z,16.1
2015-07-29T02:27:33.173Z,16.1
2015-07-29T02:27:50.908Z,16.1
2015-07-29T02:28:09.536Z,16.2
2015-07-29T02:28:27.958Z,16.3
2015-07-29T02:28:46.333Z,16.4
2015-07-29T02:29:04.709Z,16.4
2015-07-29T02:29:23.302Z,16.3
2015-07-29T02:29:42.005Z,16.4
2015-07-29T02:30:00.601Z,16.4
2015-07-29T02:30:19.148Z,16.4
2015-07-29T02:30:37.898Z,16.4
2015-07-29T02:30:56.382Z,16.3
2015-07-29T02:31:14.916Z,16.2
2015-07-29T02:31:32.853Z,16.2
2015-07-29T02:31:51.306Z,16.3
2015-07-29T02:32:09.808Z,16.3
2015-07-29T02:32:28.324Z,16.3
2015-07-29T02:32:46.699Z,16.3
2015-07-29T02:33:04.607Z,16.3
2015-07-29T02:33:23.013Z,16.3
2015-07-29T02:33:41.420Z,16.2
2015-07-29T02:33:59.342Z,16.2
2015-07-29T02:34:17.719Z,16.2
2015-07-29T02:34:36.109Z,16.2
2015-07-29T02:34:54.531Z,16.2
2015-07-29T02:35:13.002Z,16.2
2015-07-29T02:35:31.455Z,16.1
2015-07-29T02:35:50.096Z,16.2
2015-07-29T02:36:08.598Z,16.2
2015-07-29T02:36:27.004Z,16.2
2015-07-29T02:36:45.551Z,16.1
2015-07-29T02:37:03.941Z,16.1
2015-07-29T02:37:22.490Z,16.1
2015-07-29T02:37:41.021Z,16.1
2015-07-29T02:37:59.553Z,16
2015-07-29T02:38:18.039Z,16
2015-07-29T02:38:36.539Z,16
2015-07-29T02:38:55.133Z,15.9
2015-07-29T02:39:13.510Z,15.9
2015-07-29T02:39:31.885Z,16
2015-07-29T02:39:50.244Z,16.1
2015-07-29T02:40:08.682Z,16.1
2015-07-29T02:40:27.090Z,16
2015-07-29T02:40:45.496Z,16.1
2015-07-29T02:41:03.777Z,16.1
2015-07-29T02:41:22.186Z,16.1
2015-07-29T02:41:40.701Z,16
2015-07-29T02:41:59.123Z,16
2015-07-29T02:42:17.624Z,15.9
2015-07-29T02:42:36.093Z,16.1
2015-07-29T02:42:54.702Z,16.1
2015-07-29T02:43:13.080Z,16.1
2015-07-29T02:43:31.533Z,16.1
2015-07-29T02:43:50.065Z,16
2015-07-29T02:44:08.830Z,16.1
2015-07-29T02:44:28.145Z,16
2015-07-29T02:44:46.567Z,16
2015-07-29T02:45:04.989Z,16
2015-07-29T02:45:22.881Z,16.1
2015-07-29T02:45:41.256Z,16.1
2015-07-29T02:45:59.662Z,16.2
2015-07-29T02:46:18.054Z,16.2
2015-07-29T02:46:36.492Z,16.2
2015-07-29T02:46:55.148Z,16.2
2015-07-29T02:47:13.554Z,16.2
2015-07-29T02:47:32.151Z,16.1
2015-07-29T02:47:50.557Z,16.2
2015-07-29T02:48:08.948Z,16.3
2015-07-29T02:48:27.324Z,16.1
2015-07-29T02:48:45.730Z,16.2
2015-07-29T02:49:04.105Z,16.2
2015-07-29T02:49:22.544Z,16.2
2015-07-29T02:49:40.951Z,16.3
2015-07-29T02:49:59.357Z,16.3
2015-07-29T02:50:17.763Z,16.3
2015-07-29T02:50:36.250Z,16.2
2015-07-29T02:50:54.671Z,16.2
2015-07-29T02:51:13.062Z,16.2
2015-07-29T02:51:30.798Z,16.2
2015-07-29T02:51:49.173Z,16.1
2015-07-29T02:52:07.845Z,16.1
2015-07-29T02:52:26.298Z,16.2
2015-07-29T02:52:44.769Z,16.2
2015-07-29T02:53:03.269Z,16.1
2015-07-29T02:53:21.629Z,16.2
2015-07-29T02:53:40.115Z,16.3
2015-07-29T02:53:58.490Z,16.2
2015-07-29T02:54:16.865Z,16.2
2015-07-29T02:54:35.430Z,16.3
2015-07-29T02:54:53.899Z,16.4
2015-07-29T02:55:12.305Z,16.4
2015-07-29T02:55:30.805Z,16.4
2015-07-29T02:55:49.181Z,16.3
2015-07-29T02:56:07.556Z,16.3
2015-07-29T02:56:25.916Z,16.3
2015-07-29T02:56:44.355Z,16.4
2015-07-29T02:57:02.793Z,16.4
2015-07-29T02:57:21.168Z,16.4
2015-07-29T02:57:39.654Z,16.4
2015-07-29T02:57:58.232Z,16.5
2015-07-29T02:58:16.685Z,16.4
2015-07-29T02:58:35.060Z,16.4
2015-07-29T02:58:53.484Z,16.5
2015-07-29T02:59:11.859Z,16.6
2015-07-29T02:59:30.234Z,16.6
2015-07-29T02:59:48.611Z,16.6
2015-07-29T03:00:07.064Z,16.6
2015-07-29T03:00:25.596Z,16.6
2015-07-29T03:00:43.957Z,16.6
2015-07-29T03:01:02.426Z,16.5
2015-07-29T03:01:20.895Z,16.6
2015-07-29T03:01:39.363Z,16.4
2015-07-29T03:01:57.725Z,16.5
2015-07-29T03:02:16.100Z,16.5
2015-07-29T03:02:34.522Z,16.4
2015-07-29T03:02:52.914Z,16.4
2015-07-29T03:03:11.274Z,16.4
2015-07-29T03:03:29.649Z,16.4
2015-07-29T03:03:48.026Z,16.3
2015-07-29T03:04:06.401Z,16.3
2015-07-29T03:04:24.854Z,16.3
2015-07-29T03:04:43.231Z,16.3
2015-07-29T03:05:01.606Z,16.2
2015-07-29T03:05:20.012Z,16.2
2015-07-29T03:05:38.496Z,16.1
2015-07-29T03:05:56.905Z,16.2
2015-07-29T03:06:15.295Z,16.1
2015-07-29T03:06:33.655Z,16.1
2015-07-29T03:06:52.031Z,16.2
2015-07-29T03:07:10.390Z,16.2
2015-07-29T03:07:28.968Z,16.2
2015-07-29T03:07:47.534Z,16
2015-07-29T03:08:05.909Z,16
2015-07-29T03:08:24.346Z,16
2015-07-29T03:08:42.768Z,15.9
2015-07-29T03:09:01.192Z,16
2015-07-29T03:09:19.676Z,16
2015-07-29T03:09:38.067Z,16.1
2015-07-29T03:09:56.459Z,16
2015-07-29T03:10:14.866Z,16
2015-07-29T03:10:33.225Z,16
2015-07-29T03:10:51.696Z,16.1
2015-07-29T03:11:09.399Z,16.1
2015-07-29T03:11:27.790Z,16
2015-07-29T03:11:46.274Z,16
2015-07-29T03:12:04.635Z,16
2015-07-29T03:12:23.010Z,16
2015-07-29T03:12:41.432Z,16.1
2015-07-29T03:12:59.997Z,16
2015-07-29T03:13:18.544Z,15.9
2015-07-29T03:13:36.919Z,15.9
2015-07-29T03:13:55.499Z,15.9
2015-07-29T03:14:13.967Z,16
2015-07-29T03:14:32.327Z,16
2015-07-29T03:14:50.811Z,16.1
2015-07-29T03:15:09.203Z,16
2015-07-29T03:15:27.562Z,15.9
2015-07-29T03:15:45.984Z,15.8
2015-07-29T03:16:04.362Z,15.8
2015-07-29T03:16:22.940Z,15.8
2015-07-29T03:16:41.550Z,15.8
2015-07-29T03:17:00.035Z,15.8
2015-07-29T03:17:18.566Z,15.8
2015-07-29T03:17:36.941Z,15.7
2015-07-29T03:17:55.379Z,15.8
2015-07-29T03:18:13.929Z,15.8
2015-07-29T03:18:32.366Z,15.9
2015-07-29T03:18:51.069Z,15.9
2015-07-29T03:19:09.665Z,15.9
2015-07-29T03:19:28.056Z,15.9
2015-07-29T03:19:46.540Z,15.9
2015-07-29T03:20:04.917Z,15.9
2015-07-29T03:20:23.386Z,16
2015-07-29T03:20:41.995Z,16
2015-07-29T03:21:00.636Z,16
2015-07-29T03:21:19.246Z,16.1
2015-07-29T03:21:37.746Z,16.1
2015-07-29T03:21:56.199Z,16.1
2015-07-29T03:22:14.576Z,16.1
2015-07-29T03:22:33.107Z,15.9
2015-07-29T03:22:51.576Z,15.8
2015-07-29T03:23:10.078Z,15.9
2015-07-29T03:23:28.500Z,15.9
2015-07-29T03:23:46.922Z,16
2015-07-29T03:24:05.359Z,16
2015-07-29T03:24:23.799Z,16
2015-07-29T03:24:42.252Z,16
2015-07-29T03:25:00.861Z,16
2015-07-29T03:25:19.426Z,16
2015-07-29T03:25:37.910Z,16.1
2015-07-29T03:25:56.270Z,16.1
2015-07-29T03:26:14.803Z,16.2
2015-07-29T03:26:33.256Z,16.1
2015-07-29T03:26:51.819Z,16.2
2015-07-29T03:27:10.475Z,16.2
2015-07-29T03:27:28.883Z,16.2
2015-07-29T03:27:47.258Z,16.1
2015-07-29T03:28:05.664Z,16.1
2015-07-29T03:28:24.135Z,16.1
2015-07-29T03:28:42.635Z,16.2
2015-07-29T03:29:01.026Z,16.2
2015-07-29T03:29:19.434Z,16.1
2015-07-29T03:29:38.059Z,16.2
2015-07-29T03:29:55.840Z,16.2
2015-07-29T03:30:14.262Z,16.2
2015-07-29T03:30:32.701Z,16.2
2015-07-29T03:30:51.216Z,16.2
2015-07-29T03:31:09.654Z,16.2
2015-07-29T03:31:28.031Z,16.2
2015-07-29T03:31:46.484Z,16.1
2015-07-29T03:32:05.031Z,16.1
2015-07-29T03:32:23.439Z,16.1
2015-07-29T03:32:41.845Z,16.1
2015-07-29T03:33:00.314Z,16.2
2015-07-29T03:33:18.814Z,16.1
2015-07-29T03:33:37.301Z,16.1
2015-07-29T03:33:55.754Z,16.2
2015-07-29T03:34:14.145Z,16.2
2015-07-29T03:34:32.600Z,16.1
2015-07-29T03:34:51.147Z,16.1
2015-07-29T03:35:09.772Z,16.1
2015-07-29T03:35:28.132Z,16.1
2015-07-29T03:35:46.554Z,16.1
2015-07-29T03:36:05.023Z,16.1
2015-07-29T03:36:23.432Z,16.2
2015-07-29T03:36:41.839Z,16.2
2015-07-29T03:37:00.401Z,16.1
2015-07-29T03:37:18.510Z,16.2
2015-07-29T03:37:37.012Z,16.2
2015-07-29T03:37:55.450Z,16.3
2015-07-29T03:38:14.184Z,16.2
2015-07-29T03:38:32.545Z,16.3
2015-07-29T03:38:50.951Z,16.3
2015-07-29T03:39:09.638Z,16.3
2015-07-29T03:39:28.000Z,16.3
2015-07-29T03:39:46.640Z,16.4
2015-07-29T03:40:05.047Z,16.3
2015-07-29T03:40:23.781Z,16.4
2015-07-29T03:40:42.159Z,16.3
2015-07-29T03:41:00.612Z,16.3
2015-07-29T03:41:18.972Z,16.3
2015-07-29T03:41:37.426Z,16.3
2015-07-29T03:41:55.832Z,16.2
2015-07-29T03:42:14.301Z,16.2
2015-07-29T03:42:32.803Z,16.3
2015-07-29T03:42:51.225Z,16.4
2015-07-29T03:43:09.678Z,16.3
2015-07-29T03:43:28.240Z,16.2
2015-07-29T03:43:46.758Z,16.1
2015-07-29T03:44:05.164Z,16.2
2015-07-29T03:44:23.617Z,16.2
2015-07-29T03:44:42.245Z,16.2
2015-07-29T03:45:00.776Z,16.2
2015-07-29T03:45:19.495Z,16.2
2015-07-29T03:45:38.059Z,16.3
2015-07-29T03:45:56.434Z,16.3
2015-07-29T03:46:14.840Z,16.3
2015-07-29T03:46:33.420Z,16.3
2015-07-29T03:46:51.842Z,16.3
2015-07-29T03:47:10.217Z,16.4
2015-07-29T03:47:28.670Z,16.4
2015-07-29T03:47:47.031Z,16.4
2015-07-29T03:48:05.469Z,16.4
2015-07-29T03:48:23.891Z,16.3
2015-07-29T03:48:42.268Z,16.3
2015-07-29T03:49:00.862Z,16.2
2015-07-29T03:49:19.440Z,16.2
2015-07-29T03:49:37.989Z,16.2
2015-07-29T03:49:56.395Z,16.2
2015-07-29T03:50:14.832Z,16.2
2015-07-29T03:50:33.457Z,16.2
2015-07-29T03:50:51.850Z,16.2
2015-07-29T03:51:10.194Z,16.2
2015-07-29T03:51:28.569Z,16.3
2015-07-29T03:51:46.977Z,16.3
2015-07-29T03:52:05.196Z,16.2
2015-07-29T03:52:23.571Z,16.2
2015-07-29T03:52:42.088Z,16.2
2015-07-29T03:53:05.276Z,16.1
2015-07-29T03:53:23.698Z,16.1
2015-07-29T03:53:42.262Z,16.2
2015-07-29T03:54:00.684Z,16.2
2015-07-29T03:54:19.262Z,16.2
2015-07-29T03:54:37.637Z,16.2
2015-07-29T03:54:56.044Z,16.3
2015-07-29T03:55:14.388Z,16.3
2015-07-29T03:55:32.435Z,16.3
2015-07-29T03:55:50.687Z,16.3
2015-07-29T03:56:09.203Z,16.2
2015-07-29T03:56:28.031Z,16.2
2015-07-29T03:56:46.643Z,16.3
2015-07-29T03:57:05.049Z,16.3
2015-07-29T03:57:23.581Z,16.4
2015-07-29T03:57:42.003Z,16.4
2015-07-29T03:58:00.472Z,16.3
2015-07-29T03:58:18.847Z,16.3
2015-07-29T03:58:37.222Z,16.2
2015-07-29T03:58:55.584Z,16.3
2015-07-29T03:59:14.177Z,16.2
2015-07-29T03:59:32.552Z,16.2
2015-07-29T03:59:51.337Z,16.1
2015-07-29T04:00:09.712Z,16.2
2015-07-29T04:00:28.118Z,16.2
2015-07-29T04:00:46.524Z,16.2
2015-07-29T04:01:05.229Z,16.2
2015-07-29T04:01:23.698Z,16.2
2015-07-29T04:01:42.198Z,16.2
2015-07-29T04:02:00.575Z,16.2
2015-07-29T04:02:19.138Z,16.1
2015-07-29T04:02:37.716Z,16.2
2015-07-29T04:02:56.076Z,16.1
2015-07-29T04:03:14.764Z,16.2
2015-07-29T04:03:33.342Z,16.2
2015-07-29T04:03:51.795Z,16.2
2015-07-29T04:04:10.282Z,16.1
2015-07-29T04:04:28.720Z,16.2
2015-07-29T04:04:47.157Z,16.1
2015-07-29T04:05:05.533Z,16.2
2015-07-29T04:05:24.002Z,16.1
2015-07-29T04:05:42.330Z,16.1
2015-07-29T04:06:00.723Z,16.1
2015-07-29T04:06:19.098Z,16.1
2015-07-29T04:06:37.504Z,16.1